Time;durP1;ratioP1;P1;durP2;ratioP2;P2;SDS_P1;SDS_P2;PMS_P1;PMS_P2;Temp;Humidity;BMP_temperature;BMP_pressure;BME280_temperature;BME280_humidity;BME280_pressure;Samples;Min_cycle;Max_cycle;Signal;HPM_P1;HPM_P2
2022/11/21 00:00:32;;;;;;;;;15.00;15.00;;;;;4.45;81.42;98674.81;5116226;28;8858;-57
2022/11/21 00:03:00;;;;;;;;;20.40;19.80;;;;;4.42;80.73;98676.81;5116149;28;8828;-58
2022/11/21 00:05:28;;;;;;;;;22.00;18.20;;;;;4.40;81.36;98682.19;5116002;28;8820;-58
2022/11/21 00:07:55;;;;;;;;;13.00;12.00;;;;;4.38;81.46;98680.63;5115747;28;8866;-58
2022/11/21 00:10:23;;;;;;;;;16.40;14.40;;;;;4.36;81.05;98691.31;5115319;28;8827;-58
2022/11/21 00:12:51;;;;;;;;;14.40;12.80;;;;;4.30;81.01;98683.84;5104658;28;8810;-57
2022/11/21 00:15:18;;;;;;;;;13.60;11.60;;;;;4.28;81.68;98692.81;5094469;28;8830;-58
2022/11/21 00:17:46;;;;;;;;;6.20;6.20;;;;;4.24;81.05;98694.84;5094794;28;8818;-57
2022/11/21 00:20:15;;;;;;;;;14.60;9.80;;;;;4.21;81.33;98691.59;5095122;28;8857;-58
2022/11/21 00:22:43;;;;;;;;;13.80;12.60;;;;;4.20;81.39;98705.72;5094927;28;8960;-58
2022/11/21 00:25:10;;;;;;;;;8.00;7.00;;;;;4.17;81.58;98698.03;5094947;28;8853;-58
2022/11/21 00:27:38;;;;;;;;;8.80;6.80;;;;;4.14;81.14;98698.25;5107102;28;8806;-58
2022/11/21 00:30:06;;;;;;;;;9.00;9.00;;;;;4.09;81.17;98697.75;5098627;28;8818;-58
2022/11/21 00:32:34;;;;;;;;;9.20;8.20;;;;;4.09;81.43;98701.25;5098823;28;8837;-57
2022/11/21 00:35:02;;;;;;;;;15.40;13.40;;;;;4.07;81.66;98710.19;5098406;28;9495;-58
2022/11/21 00:37:30;;;;;;;;;10.00;10.00;;;;;4.06;81.45;98705.88;5098633;28;8858;-57
2022/11/21 00:39:57;;;;;;;;;13.00;12.00;;;;;4.03;81.73;98709.59;5098934;28;9515;-57
2022/11/21 00:42:25;;;;;;;;;8.00;7.60;;;;;3.99;81.83;98712.56;5098852;28;8840;-58
2022/11/21 00:44:57;;;;;;;;;12.40;11.00;;;;;3.94;81.65;98715.53;5098403;28;8825;-58
2022/11/21 00:47:25;;;;;;;;;7.80;7.80;;;;;3.89;81.31;98711.56;5098624;28;9661;-58
2022/11/21 00:49:52;;;;;;;;;14.20;14.20;;;;;3.83;81.99;98712.00;5098654;28;8830;-58
2022/11/21 00:52:20;;;;;;;;;14.20;10.80;;;;;3.78;81.43;98724.63;5098784;28;8823;-57
2022/11/21 00:54:47;;;;;;;;;9.00;8.20;;;;;3.77;81.93;98728.22;5115513;28;8869;-57
2022/11/21 00:57:16;;;;;;;;;12.40;9.40;;;;;3.72;81.80;98714.53;5117080;28;8828;-58
2022/11/21 00:59:43;;;;;;;;;9.60;8.20;;;;;3.67;81.74;98717.50;5098182;28;8843;-57
2022/11/21 01:02:12;;;;;;;;;10.80;10.80;;;;;3.64;81.75;98716.88;5098266;28;8833;-57
2022/11/21 01:04:40;;;;;;;;;16.40;14.20;;;;;3.61;81.49;98722.38;5098340;28;8846;-57
2022/11/21 01:07:08;;;;;;;;;3.20;3.20;;;;;3.58;81.99;98725.22;5098011;28;8915;-58
2022/11/21 01:09:38;;;;;;;;;9.00;9.00;;;;;3.56;81.72;98721.84;5098264;28;8818;-57
2022/11/21 01:12:05;;;;;;;;;9.80;8.60;;;;;3.51;81.55;98726.59;5098400;28;8837;-58
2022/11/21 01:14:33;;;;;;;;;10.40;9.60;;;;;3.48;81.67;98731.25;5098453;28;8818;-57
2022/11/21 01:17:01;;;;;;;;;9.80;7.40;;;;;3.45;82.08;98727.03;5098265;28;8849;-57
2022/11/21 01:19:28;;;;;;;;;10.00;9.80;;;;;3.43;81.66;98728.09;5098092;28;8850;-57
2022/11/21 01:21:56;;;;;;;;;4.80;4.00;;;;;3.41;82.38;98735.25;5098444;28;8849;-58
2022/11/21 01:24:24;;;;;;;;;11.60;9.00;;;;;3.34;82.16;98737.44;5111769;28;8874;-57
2022/11/21 01:26:53;;;;;;;;;8.00;5.20;;;;;3.31;82.38;98745.56;5118462;28;8904;-57
2022/11/21 01:29:21;;;;;;;;;9.80;9.20;;;;;3.28;81.62;98742.31;5098685;28;8858;-57
2022/11/21 01:31:48;;;;;;;;;8.20;7.60;;;;;3.24;81.62;98746.13;5098090;28;8864;-57
2022/11/21 01:34:17;;;;;;;;;9.40;8.00;;;;;3.21;82.08;98744.53;5098288;28;8813;-57
2022/11/21 01:36:45;;;;;;;;;7.80;7.60;;;;;3.19;81.72;98742.94;5097881;28;8828;-57
2022/11/21 01:39:12;;;;;;;;;9.00;8.20;;;;;3.17;81.82;98753.56;5097352;28;8841;-56
2022/11/21 01:41:40;;;;;;;;;7.20;6.00;;;;;3.17;82.00;98758.00;5097840;28;8886;-57
2022/11/21 01:44:07;;;;;;;;;8.20;6.80;;;;;3.15;81.68;98755.47;5097416;28;8912;-56
2022/11/21 01:46:37;;;;;;;;;7.00;6.60;;;;;3.16;81.87;98754.53;5097575;28;8910;-57
2022/11/21 01:49:04;;;;;;;;;7.40;6.20;;;;;3.17;82.10;98750.94;5097625;28;8822;-57
2022/11/21 01:51:32;;;;;;;;;10.40;10.00;;;;;3.17;81.54;98747.50;5096841;28;8846;-57
2022/11/21 01:54:00;;;;;;;;;9.80;8.80;;;;;3.16;81.86;98757.16;5107686;28;8890;-56
2022/11/21 01:56:27;;;;;;;;;3.60;3.60;;;;;3.14;81.47;98751.16;5117728;28;8800;-56
2022/11/21 01:58:56;;;;;;;;;9.00;7.00;;;;;3.13;81.45;98752.13;5102044;28;8879;-57
2022/11/21 02:01:23;;;;;;;;;8.60;8.20;;;;;3.12;81.39;98755.69;5097584;28;8821;-57
2022/11/21 02:03:51;;;;;;;;;5.60;4.60;;;;;3.10;81.67;98757.56;5097012;28;8869;-58
2022/11/21 02:06:18;;;;;;;;;8.00;7.40;;;;;3.07;81.98;98757.78;5097277;28;8829;-55
2022/11/21 02:08:46;;;;;;;;;9.80;7.80;;;;;3.04;81.68;98763.25;5096989;28;8822;-57
2022/11/21 02:11:14;;;;;;;;;6.20;5.60;;;;;2.99;82.02;98760.09;5096943;28;8922;-57
2022/11/21 02:13:42;;;;;;;;;9.20;7.00;;;;;2.96;81.86;98760.28;5096872;28;8814;-57
2022/11/21 02:16:09;;;;;;;;;4.40;4.40;;;;;2.93;81.70;98760.50;5097168;28;8834;-57
2022/11/21 02:18:37;;;;;;;;;4.60;3.00;;;;;2.91;81.95;98761.56;5096872;28;8857;-57
2022/11/21 02:21:04;;;;;;;;;6.40;6.40;;;;;2.91;81.92;98757.16;5096653;28;8861;-58
2022/11/21 02:23:32;;;;;;;;;6.00;5.20;;;;;2.90;81.31;98760.72;5103372;28;8820;-55
2022/11/21 02:26:00;;;;;;;;;4.40;4.00;;;;;2.88;81.38;98761.78;5117331;28;8838;-57
2022/11/21 02:28:28;;;;;;;;;7.40;6.80;;;;;2.88;81.38;98757.34;5105066;28;8822;-57
2022/11/21 02:30:55;;;;;;;;;6.00;6.00;;;;;2.88;81.43;98764.41;5096255;28;8822;-55
2022/11/21 02:33:23;;;;;;;;;9.40;6.80;;;;;2.87;81.55;98767.97;5096035;28;8806;-56
2022/11/21 02:35:53;;;;;;;;;5.20;3.60;;;;;2.85;81.51;98765.44;5096781;28;8866;-57
2022/11/21 02:38:21;;;;;;;;;9.60;9.00;;;;;2.85;81.68;98765.44;5096629;28;9259;-57
2022/11/21 02:40:48;;;;;;;;;6.80;5.20;;;;;2.85;81.82;98762.81;5096808;28;8861;-56
2022/11/21 02:43:16;;;;;;;;;9.60;7.00;;;;;2.86;81.72;98764.50;5096320;28;8814;-57
2022/11/21 02:45:44;;;;;;;;;6.80;5.60;;;;;2.86;81.35;98755.75;5096786;28;8875;-56
2022/11/21 02:48:11;;;;;;;;;7.00;7.00;;;;;2.84;81.18;98750.63;5096584;28;8857;-58
2022/11/21 02:50:39;;;;;;;;;4.00;4.00;;;;;2.83;81.76;98767.34;5096181;28;8842;-57
2022/11/21 02:53:07;;;;;;;;;3.00;3.00;;;;;2.81;81.70;98766.59;5099235;28;8820;-56
2022/11/21 02:55:35;;;;;;;;;7.40;6.60;;;;;2.81;81.38;98771.84;5116678;28;8816;-56
2022/11/21 02:58:02;;;;;;;;;10.00;7.40;;;;;2.79;81.96;98765.84;5109066;28;9495;-57
2022/11/21 03:00:34;;;;;;;;;6.60;5.80;;;;;2.82;81.42;98764.81;5096105;28;8906;-56
2022/11/21 03:03:02;;;;;;;;;7.40;6.20;;;;;2.83;81.16;98767.34;5096490;28;8821;-57
2022/11/21 03:05:29;;;;;;;;;9.40;8.60;;;;;2.85;82.16;98767.22;5096434;28;8826;-57
2022/11/21 03:07:57;;;;;;;;;9.60;9.20;;;;;2.87;81.24;98770.59;5096414;28;8822;-57
2022/11/21 03:10:24;;;;;;;;;5.00;4.60;;;;;2.88;81.55;98773.13;5096262;28;8848;-56
2022/11/21 03:12:59;;;;;;;;;7.00;6.40;;;;;2.87;81.58;98771.44;5096368;28;8906;-56
2022/11/21 03:15:43;;;;;;;;;6.40;5.20;;;;;2.85;81.72;98775.97;5096146;28;8829;-55
2022/11/21 03:18:10;;;;;;;;;6.00;6.00;;;;;2.82;81.91;98773.56;5096400;28;8919;-57
2022/11/21 03:20:38;;;;;;;;;5.60;5.60;;;;;2.81;81.28;98774.47;5096151;28;9566;-58
2022/11/21 03:23:08;;;;;;;;;4.00;3.60;;;;;2.83;81.49;98771.75;5099101;28;9469;-57
2022/11/21 03:25:36;;;;;;;;;7.40;7.40;;;;;2.83;81.37;98767.34;5116845;28;8840;-55
2022/11/21 03:28:03;;;;;;;;;4.00;3.40;;;;;2.86;81.27;98767.13;5108730;28;8814;-55
2022/11/21 03:30:31;;;;;;;;;8.60;6.80;;;;;2.89;81.36;98768.72;5095876;28;8822;-57
2022/11/21 03:32:59;;;;;;;;;8.20;5.60;;;;;2.90;81.24;98771.25;5096122;28;8806;-57
2022/11/21 03:35:28;;;;;;;;;9.00;8.20;;;;;2.90;81.44;98759.88;5096267;28;8850;-57
2022/11/21 03:37:56;;;;;;;;;3.20;3.20;;;;;2.90;81.26;98771.25;5096187;28;8814;-55
2022/11/21 03:40:24;;;;;;;;;3.80;3.00;;;;;2.90;81.37;98765.13;5095746;28;8902;-55
2022/11/21 03:42:51;;;;;;;;;6.20;6.00;;;;;2.90;81.34;98771.25;5096114;28;8826;-56
2022/11/21 03:45:19;;;;;;;;;7.80;7.20;;;;;2.90;80.97;98775.66;5096064;28;8826;-55
2022/11/21 03:47:48;;;;;;;;;7.00;5.40;;;;;2.89;81.54;98768.72;5095960;28;8906;-57
2022/11/21 03:50:19;;;;;;;;;7.60;7.60;;;;;2.89;81.04;98772.16;5095872;28;8919;-57
2022/11/21 03:52:47;;;;;;;;;7.80;6.00;;;;;2.87;81.16;98770.59;5095793;28;8830;-56
2022/11/21 03:55:15;;;;;;;;;9.20;8.20;;;;;2.87;81.59;98776.69;5116181;28;8911;-57
2022/11/21 03:57:42;;;;;;;;;3.20;3.00;;;;;2.86;81.41;98780.25;5111903;28;8815;-57
2022/11/21 04:00:14;;;;;;;;;6.80;6.00;;;;;2.85;81.72;98781.22;5095937;28;8826;-56
2022/11/21 04:02:42;;;;;;;;;6.40;6.20;;;;;2.86;80.86;98774.16;5097341;28;8894;-56
2022/11/21 04:05:09;;;;;;;;;9.60;7.00;;;;;2.88;81.44;98777.53;5099775;28;8822;-58
2022/11/21 04:07:37;;;;;;;;;8.60;8.20;;;;;2.87;81.40;98770.59;5099567;28;8914;-57
2022/11/21 04:10:05;;;;;;;;;7.00;7.00;;;;;2.89;80.78;98766.09;5099320;28;8944;-58
2022/11/21 04:12:34;;;;;;;;;4.80;4.80;;;;;2.91;80.72;98770.28;5099737;28;8814;-58
2022/11/21 04:15:02;;;;;;;;;7.60;6.60;;;;;2.92;81.29;98771.13;5099563;28;8849;-57
2022/11/21 04:17:31;;;;;;;;;9.20;9.20;;;;;2.92;80.80;98769.34;5099321;28;8952;-58
2022/11/21 04:19:59;;;;;;;;;5.60;4.00;;;;;2.90;81.15;98776.50;5098561;28;8838;-57
2022/11/21 04:22:26;;;;;;;;;10.00;7.80;;;;;2.91;80.61;98766.81;5099132;28;8825;-58
2022/11/21 04:24:54;;;;;;;;;6.00;4.00;;;;;2.92;81.03;98777.22;5117261;28;8836;-57
2022/11/21 04:27:22;;;;;;;;;8.20;7.00;;;;;2.93;80.83;98773.66;5118281;28;8820;-57
2022/11/21 04:29:49;;;;;;;;;6.20;5.60;;;;;2.95;80.86;98774.38;5098215;28;8834;-58
2022/11/21 04:32:17;;;;;;;;;10.20;9.20;;;;;2.97;80.84;98771.66;5097717;28;8826;-57
2022/11/21 04:34:45;;;;;;;;;12.00;10.80;;;;;2.99;80.70;98782.91;5097546;28;8823;-56
2022/11/21 04:37:13;;;;;;;;;9.20;7.00;;;;;2.99;80.30;98789.03;5098146;28;8830;-57
2022/11/21 04:39:40;;;;;;;;;12.60;10.20;;;;;3.00;81.32;98785.44;5097764;28;8837;-56
2022/11/21 04:42:08;;;;;;;;;9.80;9.80;;;;;3.03;80.67;98787.03;5097635;28;8829;-57
2022/11/21 04:44:36;;;;;;;;;8.60;8.60;;;;;3.02;80.33;98780.91;5097752;28;8846;-57
2022/11/21 04:47:04;;;;;;;;;10.80;9.60;;;;;3.02;80.99;98780.91;5098735;28;8822;-55
2022/11/21 04:49:34;;;;;;;;;10.00;9.00;;;;;3.06;80.99;98776.28;5098873;28;8944;-55
2022/11/21 04:52:02;;;;;;;;;7.80;7.20;;;;;3.09;80.56;98784.81;5098432;28;8842;-56
2022/11/21 04:54:29;;;;;;;;;8.80;6.60;;;;;3.10;81.17;98791.75;5112931;28;8827;-55
2022/11/21 04:56:57;;;;;;;;;3.60;3.00;;;;;3.09;80.38;98792.69;5118641;28;8812;-55
2022/11/21 04:59:25;;;;;;;;;6.40;5.20;;;;;3.07;81.26;98783.22;5100219;28;9544;-55
2022/11/21 05:01:54;;;;;;;;;1.00;1.00;;;;;3.08;80.70;98788.38;5097977;28;8854;-55
2022/11/21 05:04:22;;;;;;;;;9.40;9.20;;;;;3.07;80.83;98784.09;5098076;28;8825;-57
2022/11/21 05:06:50;;;;;;;;;4.80;3.60;;;;;3.05;80.24;98785.13;5096340;28;8810;-57
2022/11/21 05:09:17;;;;;;;;;8.20;6.60;;;;;3.04;80.68;98796.59;5096461;28;8818;-56
2022/11/21 05:14:33;;;;;;;;;6.20;6.00;;;;;3.02;80.56;98791.44;5096405;28;8834;-55
2022/11/21 05:17:00;;;;;;;;;7.40;7.00;;;;;3.03;81.01;98785.22;5097191;28;8854;-55
2022/11/21 05:19:28;;;;;;;;;8.40;5.60;;;;;3.05;81.00;98785.13;5097302;28;8838;-56
2022/11/21 05:21:55;;;;;;;;;13.00;10.40;;;;;3.04;80.64;98778.19;5097906;28;8861;-56
2022/11/21 05:24:23;;;;;;;;;10.00;9.00;;;;;3.04;80.32;98784.28;5111350;28;8889;-56
2022/11/21 05:26:56;;;;;;;;;7.40;7.00;;;;;3.03;80.79;98782.59;5118228;28;8824;-55
2022/11/21 05:29:24;;;;;;;;;7.40;6.00;;;;;3.03;81.20;98784.41;5099771;28;8837;-57
2022/11/21 05:31:54;;;;;;;;;7.80;7.00;;;;;3.03;80.93;98776.50;5097026;28;8836;-57
2022/11/21 05:34:22;;;;;;;;;10.20;8.20;;;;;3.04;80.60;98789.53;5096893;28;8814;-56
2022/11/21 05:36:55;;;;;;;;;6.80;5.40;;;;;3.04;80.71;98778.19;5096767;28;8838;-57
2022/11/21 05:39:23;;;;;;;;;7.40;7.00;;;;;3.03;80.90;98782.59;5096766;28;8822;-57
2022/11/21 05:41:51;;;;;;;;;5.40;4.80;;;;;3.01;80.47;98773.97;5096500;28;9491;-56
2022/11/21 05:44:17;;;;;;;;;7.20;5.20;;;;;3.02;80.41;98783.53;5097036;28;8860;-56
2022/11/21 05:46:45;;;;;;;;;12.00;10.80;;;;;3.02;81.19;98782.72;5096898;28;8931;-57
2022/11/21 05:49:13;;;;;;;;;6.00;6.00;;;;;3.02;80.73;98785.34;5097377;28;8810;-57
2022/11/21 05:51:42;;;;;;;;;11.20;7.80;;;;;3.03;80.95;98779.97;5076846;28;8820;-57
2022/11/21 05:54:09;;;;;;;;;11.80;10.80;;;;;3.03;80.07;98777.34;5100243;28;8836;-57
2022/11/21 05:56:37;;;;;;;;;10.60;9.60;;;;;3.03;80.95;98779.97;5117320;28;8842;-57
2022/11/21 05:59:04;;;;;;;;;7.60;7.40;;;;;3.02;80.40;98777.47;5117097;28;9525;-57
2022/11/21 06:04:18;;;;;;;;;7.40;6.60;;;;;3.04;80.37;98773.75;5101190;28;8806;-57
2022/11/21 06:06:45;;;;;;;;;6.60;3.60;;;;;3.04;80.74;98773.75;5095971;28;8849;-57
2022/11/21 06:09:13;;;;;;;;;10.00;10.00;;;;;3.07;80.87;98778.81;5095812;28;8927;-57
2022/11/21 06:11:41;;;;;;;;;9.60;9.20;;;;;3.08;80.38;98769.97;5095911;28;8810;-57
2022/11/21 06:14:08;;;;;;;;;11.80;10.80;;;;;3.09;80.45;98768.22;5095991;28;8826;-57
2022/11/21 06:16:36;;;;;;;;;15.60;13.20;;;;;3.10;80.41;98768.09;5095697;28;8906;-57
2022/11/21 06:19:04;;;;;;;;;9.00;7.00;;;;;3.11;80.26;98764.50;5095080;28;8873;-57
2022/11/21 06:21:33;;;;;;;;;13.80;12.00;;;;;3.15;80.34;98760.72;5094260;28;8924;-56
2022/11/21 06:24:00;;;;;;;;;12.00;11.40;;;;;3.19;79.95;98761.38;5103388;28;9531;-57
2022/11/21 06:26:28;;;;;;;;;6.20;5.40;;;;;3.21;80.94;98760.31;5113198;28;9541;-57
2022/11/21 06:28:59;;;;;;;;;10.00;9.40;;;;;3.25;80.89;98761.78;5112969;28;8832;-57
2022/11/21 06:31:26;;;;;;;;;7.80;6.00;;;;;3.29;79.91;98765.03;5111591;28;8831;-57
2022/11/21 06:33:54;;;;;;;;;10.60;10.00;;;;;3.31;80.58;98758.72;5112384;28;8842;-56
2022/11/21 06:36:22;;;;;;;;;7.00;7.00;;;;;3.31;80.76;98753.47;5111515;28;8839;-57
2022/11/21 06:38:49;;;;;;;;;9.00;6.00;;;;;3.32;80.68;98751.69;5112260;28;8854;-57
2022/11/21 06:41:19;;;;;;;;;3.60;2.20;;;;;3.31;80.25;98756.09;5111130;28;8858;-57
2022/11/21 06:43:46;;;;;;;;;4.80;4.80;;;;;3.31;80.52;98756.09;5111243;28;8860;-57
2022/11/21 06:46:14;;;;;;;;;7.00;6.00;;;;;3.29;80.21;98746.63;5111085;28;9532;-57
2022/11/21 06:48:41;;;;;;;;;11.80;11.80;;;;;3.27;80.41;98759.88;5112301;28;8908;-57
2022/11/21 06:51:09;;;;;;;;;11.00;9.40;;;;;3.26;80.34;98755.56;5111759;28;8831;-57
2022/11/21 06:53:38;;;;;;;;;11.40;9.00;;;;;3.24;79.86;98744.31;5112061;28;9552;-56
2022/11/21 06:56:07;;;;;;;;;16.40;12.20;;;;;3.24;80.02;98741.69;5112974;28;8808;-57
2022/11/21 06:58:35;;;;;;;;;12.40;12.40;;;;;3.24;80.48;98746.94;5112487;28;8827;-57
2022/11/21 07:01:02;;;;;;;;;11.60;9.80;;;;;3.23;80.07;98742.63;5111749;28;8908;-57
2022/11/21 07:03:30;;;;;;;;;10.60;9.40;;;;;3.23;80.63;98747.03;5111676;28;8860;-57
2022/11/21 07:06:00;;;;;;;;;7.40;6.20;;;;;3.24;80.04;98738.22;5110437;28;8847;-57
2022/11/21 07:08:28;;;;;;;;;9.80;9.20;;;;;3.28;80.16;98734.41;5109808;28;9513;-57
2022/11/21 07:10:56;;;;;;;;;6.20;4.40;;;;;3.30;80.40;98746.53;5110467;28;8832;-57
2022/11/21 07:13:43;;;;;;;;;6.00;6.00;;;;;3.32;80.64;98741.16;5110634;28;8924;-56
2022/11/21 07:16:13;;;;;;;;;8.00;7.00;;;;;3.37;80.73;98744.28;5110756;28;8828;-57
2022/11/21 07:18:41;;;;;;;;;9.20;9.20;;;;;3.40;80.26;98738.84;5112426;28;8824;-57
2022/11/21 07:21:08;;;;;;;;;6.20;6.00;;;;;3.45;80.28;98744.59;5112220;28;8828;-57
2022/11/21 07:23:36;;;;;;;;;7.40;6.60;;;;;3.47;79.99;98735.66;5112059;28;8851;-57
2022/11/21 07:26:04;;;;;;;;;10.60;9.20;;;;;3.52;80.32;98736.19;5112264;28;8864;-57
2022/11/21 07:28:32;;;;;;;;;5.60;5.60;;;;;3.57;80.45;98741.13;5111703;28;9559;-57
2022/11/21 07:31:02;;;;;;;;;9.00;9.00;;;;;3.59;79.92;98745.31;5111645;28;8824;-56
2022/11/21 07:33:37;;;;;;;;;3.40;3.00;;;;;3.59;80.38;98742.69;5110074;28;8843;-57
2022/11/21 07:36:05;;;;;;;;;8.20;7.00;;;;;3.62;80.08;98747.72;5111576;28;8912;-57
2022/11/21 07:38:34;;;;;;;;;7.40;7.40;;;;;3.64;80.15;98756.34;5114050;28;9549;-57
2022/11/21 07:41:02;;;;;;;;;9.80;8.80;;;;;3.67;79.95;98755.28;5115262;28;8840;-56
2022/11/21 07:43:30;;;;;;;;;10.60;7.80;;;;;3.67;79.37;98751.72;5116014;28;8823;-57
2022/11/21 07:45:57;;;;;;;;;9.20;9.20;;;;;3.70;80.36;98753.28;5115632;28;8878;-57
2022/11/21 07:48:25;;;;;;;;;7.40;6.80;;;;;3.73;80.16;98750.47;5116525;28;8823;-57
2022/11/21 07:50:53;;;;;;;;;8.60;8.00;;;;;3.77;80.39;98751.91;5116986;28;8858;-57
2022/11/21 07:53:21;;;;;;;;;5.60;5.60;;;;;3.83;79.40;98754.09;5116217;28;8882;-57
2022/11/21 07:55:49;;;;;;;;;12.80;10.60;;;;;3.89;79.85;98756.31;5115612;28;8835;-57
2022/11/21 07:58:17;;;;;;;;;7.00;7.00;;;;;3.93;79.97;98748.06;5115728;28;8842;-57
2022/11/21 08:00:44;;;;;;;;;7.00;7.00;;;;;3.99;79.45;98752.06;5114502;28;8831;-57
2022/11/21 08:03:13;;;;;;;;;6.20;3.80;;;;;4.05;79.73;98748.97;5114045;28;9630;-57
2022/11/21 08:05:40;;;;;;;;;1.00;0.60;;;;;4.13;79.58;98746.63;5114260;28;8847;-57
2022/11/21 08:08:08;;;;;;;;;4.00;3.20;;;;;4.20;79.57;98737.34;5114300;28;8843;-56
2022/11/21 08:10:36;;;;;;;;;9.60;8.80;;;;;4.28;79.08;98738.44;5114270;28;8924;-57
2022/11/21 08:13:04;;;;;;;;;11.00;9.40;;;;;4.36;79.28;98728.19;5114141;28;8846;-57
2022/11/21 08:15:34;;;;;;;;;13.40;12.40;;;;;4.41;78.80;98723.41;5114487;28;8936;-57
2022/11/21 08:18:02;;;;;;;;;6.20;6.20;;;;;4.49;78.87;98725.47;5114777;28;8846;-57
2022/11/21 08:20:29;;;;;;;;;3.20;3.20;;;;;4.53;78.57;98725.13;5114738;28;9568;-57
2022/11/21 08:22:57;;;;;;;;;8.80;8.20;;;;;4.60;78.91;98722.88;5115207;28;8839;-57
2022/11/21 08:25:25;;;;;;;;;3.40;3.40;;;;;4.65;79.05;98726.00;5115697;28;8954;-57
2022/11/21 08:27:54;;;;;;;;;3.60;2.20;;;;;4.68;78.66;98724.00;5115735;28;8816;-57
2022/11/21 08:30:22;;;;;;;;;4.00;4.00;;;;;4.73;78.73;98728.91;5113923;28;8824;-56
2022/11/21 08:32:50;;;;;;;;;11.20;9.20;;;;;4.77;78.52;98719.78;5114187;28;8847;-57
2022/11/21 08:35:18;;;;;;;;;12.60;7.80;;;;;4.81;78.97;98718.63;5115399;28;8851;-57
2022/11/21 08:37:45;;;;;;;;;6.60;5.60;;;;;4.84;78.20;98718.38;5115539;28;8816;-57
2022/11/21 08:40:15;;;;;;;;;9.80;9.20;;;;;4.85;78.76;98715.63;5115714;28;8831;-57
2022/11/21 08:42:43;;;;;;;;;8.80;8.80;;;;;4.88;78.83;98715.38;5114882;28;8823;-56
2022/11/21 08:45:10;;;;;;;;;11.20;10.00;;;;;4.90;78.61;98704.72;5114369;28;8847;-57
2022/11/21 08:47:38;;;;;;;;;7.40;6.80;;;;;4.91;78.31;98709.03;5115486;28;9497;-57
2022/11/21 08:50:06;;;;;;;;;9.80;9.60;;;;;4.96;78.61;98696.34;5113790;28;8828;-57
2022/11/21 08:52:35;;;;;;;;;10.40;9.60;;;;;5.02;78.37;98701.97;5114835;28;8822;-57
2022/11/21 08:55:03;;;;;;;;;9.80;9.80;;;;;5.09;78.25;98712.94;5114426;28;8824;-57
2022/11/21 08:57:31;;;;;;;;;11.60;11.60;;;;;5.12;78.15;98702.97;5114850;28;8856;-57
2022/11/21 08:59:59;;;;;;;;;15.60;13.40;;;;;5.17;78.44;98698.16;5115159;28;8843;-57
2022/11/21 09:02:27;;;;;;;;;17.20;15.40;;;;;5.21;78.00;98696.13;5114717;28;8961;-57
2022/11/21 09:04:55;;;;;;;;;12.00;9.20;;;;;5.24;78.21;98703.81;5114272;28;8835;-57
2022/11/21 09:07:23;;;;;;;;;13.80;13.80;;;;;5.24;78.68;98698.53;5114343;28;9211;-57
2022/11/21 09:09:51;;;;;;;;;9.20;9.00;;;;;5.25;78.47;98693.13;5115474;28;8878;-56
2022/11/21 09:12:19;;;;;;;;;9.40;7.00;;;;;5.27;78.39;98685.94;5114742;28;8827;-57
2022/11/21 09:20:19;;;;;;;;;9.00;7.00;;;;;5.42;78.09;98678.63;5113469;28;8848;-57
2022/11/21 09:22:47;;;;;;;;;9.20;8.80;;;;;5.43;77.71;98685.56;5113610;28;8936;-57
2022/11/21 09:25:14;;;;;;;;;10.00;9.20;;;;;5.44;78.33;98684.59;5112308;28;8831;-56
2022/11/21 09:27:43;;;;;;;;;12.60;10.80;;;;;5.43;78.26;98691.69;5109781;28;8851;-57
2022/11/21 09:30:10;;;;;;;;;10.80;9.60;;;;;5.43;78.59;98696.97;5111513;28;8974;-57
2022/11/21 09:32:39;;;;;;;;;12.60;12.00;;;;;5.43;78.17;98701.41;5112270;28;8866;-57
2022/11/21 09:35:07;;;;;;;;;9.00;8.60;;;;;5.43;78.32;98701.41;5112424;28;8851;-57
2022/11/21 09:37:35;;;;;;;;;4.00;3.00;;;;;5.44;78.39;98703.94;5112489;28;9181;-57
2022/11/21 09:40:03;;;;;;;;;12.80;12.00;;;;;5.44;78.09;98703.94;5113962;28;8835;-57
2022/11/21 09:42:34;;;;;;;;;9.20;9.00;;;;;5.46;78.42;98695.91;5114164;28;8854;-57
2022/11/21 09:45:02;;;;;;;;;5.20;4.00;;;;;5.47;78.10;98692.31;5114369;28;8816;-56
2022/11/21 09:47:29;;;;;;;;;15.80;12.80;;;;;5.48;78.10;98699.25;5113522;28;9578;-57
2022/11/21 09:49:57;;;;;;;;;11.80;9.60;;;;;5.49;78.95;98691.22;5113564;28;8824;-57
2022/11/21 09:52:25;;;;;;;;;13.00;12.00;;;;;5.50;78.65;98690.25;5113392;28;8835;-57
2022/11/21 09:54:53;;;;;;;;;9.80;9.80;;;;;5.52;78.30;98696.25;5113226;28;8828;-57
2022/11/21 09:57:22;;;;;;;;;12.00;9.40;;;;;5.54;78.68;98688.22;5113340;28;8816;-57
2022/11/21 09:59:50;;;;;;;;;3.00;3.00;;;;;5.56;78.13;98681.00;5112919;28;8847;-56
2022/11/21 10:02:18;;;;;;;;;5.20;5.20;;;;;5.56;78.79;98681.00;5112877;28;8840;-57
2022/11/21 10:04:46;;;;;;;;;9.60;8.80;;;;;5.57;78.05;98683.53;5114511;28;9498;-57
2022/11/21 10:07:14;;;;;;;;;11.00;10.80;;;;;5.59;78.20;98686.03;5114404;28;8835;-57
2022/11/21 10:09:44;;;;;;;;;13.80;12.60;;;;;5.60;78.05;98688.56;5113919;28;8936;-57
2022/11/21 10:14:57;;;;;;;;;12.20;12.00;;;;;5.62;78.33;98667.31;5114034;28;8855;-57
2022/11/21 10:17:25;;;;;;;;;10.00;8.60;;;;;5.64;78.56;98670.66;5114133;28;8808;-57
2022/11/21 10:19:52;;;;;;;;;10.40;10.40;;;;;5.64;78.67;98663.59;5112888;28;8831;-57
2022/11/21 10:22:20;;;;;;;;;12.20;10.00;;;;;5.68;78.21;98662.38;5112430;28;8819;-57
2022/11/21 10:24:48;;;;;;;;;11.60;9.20;;;;;5.73;78.53;98651.44;5112196;28;8824;-57
2022/11/21 10:27:16;;;;;;;;;10.00;10.00;;;;;5.78;78.04;98650.09;5112337;28;8944;-57
2022/11/21 10:29:44;;;;;;;;;13.00;10.60;;;;;5.85;78.46;98645.22;5112813;28;8844;-57
2022/11/21 10:32:13;;;;;;;;;9.20;9.20;;;;;5.92;77.77;98626.09;5113059;28;9537;-57
2022/11/21 10:34:41;;;;;;;;;9.40;8.40;;;;;6.04;77.94;98618.94;5111763;28;8854;-58
2022/11/21 10:37:08;;;;;;;;;14.60;13.00;;;;;6.14;77.45;98619.88;5112638;28;8854;-56
2022/11/21 10:39:38;;;;;;;;;12.40;10.40;;;;;6.29;77.69;98608.88;5112688;28;8868;-58
2022/11/21 10:42:06;;;;;;;;;13.40;12.60;;;;;6.51;77.04;98602.63;5112238;28;8969;-58
2022/11/21 10:47:26;;;;;;;;;11.60;11.60;;;;;7.12;76.17;98591.91;5112933;28;8847;-58
2022/11/21 10:49:55;;;;;;;;;13.80;12.40;;;;;7.47;75.60;98583.53;5112006;28;9513;-58
2022/11/21 10:52:22;;;;;;;;;13.00;10.80;;;;;7.63;75.40;98581.19;5112037;28;8875;-58
2022/11/21 10:54:50;;;;;;;;;12.40;12.40;;;;;7.67;75.35;98572.84;5112927;28;9542;-58
2022/11/21 10:57:18;;;;;;;;;5.00;5.00;;;;;7.63;75.65;98562.63;5113457;28;8831;-58
2022/11/21 10:59:47;;;;;;;;;12.00;10.40;;;;;7.58;75.44;98573.66;5113661;28;8857;-58
2022/11/21 11:02:15;;;;;;;;;9.60;8.40;;;;;7.56;76.24;98572.09;5113430;28;8828;-58
2022/11/21 11:04:43;;;;;;;;;12.00;9.00;;;;;7.51;76.08;98563.75;5113204;28;8840;-58
2022/11/21 11:07:19;;;;;;;;;15.20;10.80;;;;;7.43;76.59;98563.59;5113836;28;8816;-58
2022/11/21 11:09:47;;;;;;;;;13.00;12.20;;;;;7.36;76.33;98559.81;5112989;28;8824;-57
2022/11/21 11:12:14;;;;;;;;;6.80;6.80;;;;;7.33;77.10;98560.06;5112008;28;8974;-58
2022/11/21 11:14:43;;;;;;;;;9.40;9.40;;;;;7.29;76.56;98554.22;5112137;28;8828;-58
2022/11/21 11:17:11;;;;;;;;;12.80;12.80;;;;;7.27;76.93;98560.63;5112576;28;8840;-58
2022/11/21 11:19:38;;;;;;;;;10.20;8.60;;;;;7.23;77.21;98559.22;5112890;28;8867;-58
2022/11/21 11:22:07;;;;;;;;;9.20;7.40;;;;;7.21;76.99;98553.22;5113253;28;8913;-58
2022/11/21 11:24:35;;;;;;;;;13.40;12.00;;;;;7.20;76.84;98548.91;5112094;28;8859;-58
2022/11/21 11:27:04;;;;;;;;;17.20;15.40;;;;;7.22;77.26;98544.31;5111210;28;9213;-58
2022/11/21 11:29:34;;;;;;;;;10.80;10.80;;;;;7.25;76.74;98536.09;5111716;28;8962;-58
2022/11/21 11:32:03;;;;;;;;;19.40;18.20;;;;;7.29;77.01;98533.03;5111533;28;8839;-58
2022/11/21 11:34:32;;;;;;;;;20.20;20.20;;;;;7.38;76.69;98531.38;5109975;28;8962;-58
2022/11/21 11:37:00;;;;;;;;;33.40;30.60;;;;;7.51;76.75;98521.38;5109344;28;8824;-58
2022/11/21 11:39:29;;;;;;;;;12.40;12.00;;;;;7.64;76.33;98516.66;5109483;28;8843;-58
2022/11/21 11:47:35;;;;;;;;;16.40;12.60;;;;;8.21;75.57;98506.88;5109774;28;8855;-58
2022/11/21 11:50:14;;;;;;;;;17.80;16.60;;;;;8.48;74.71;98498.97;5111786;28;8832;-58
2022/11/21 11:52:42;;;;;;;;;9.40;9.40;;;;;8.70;74.49;98499.47;5112756;28;9496;-58
2022/11/21 11:55:10;;;;;;;;;15.80;13.00;;;;;8.90;74.28;98498.38;5111828;28;8823;-57
2022/11/21 11:57:39;;;;;;;;;11.60;11.60;;;;;8.96;74.15;98494.34;5112000;28;8866;-58
2022/11/21 12:00:07;;;;;;;;;13.80;12.00;;;;;8.93;74.29;98484.84;5111092;28;8836;-58
2022/11/21 12:02:35;;;;;;;;;12.00;9.50;;;;;8.86;74.43;98482.91;5111397;28;8827;-58
2022/11/21 12:05:03;;;;;;;;;13.25;12.25;;;;;8.81;75.14;98479.88;5111578;28;8839;-58
2022/11/21 12:07:31;;;;;;;;;10.50;10.00;;;;;8.77;74.95;98471.38;5111160;28;8875;-58
2022/11/21 12:10:19;;;;;;;;;16.00;14.80;;;;;8.76;74.43;98471.50;5108413;28;8871;-58